sensor_id;sensor_type;location;lat;lon;timestamp;P1;durP1;ratioP1;P2;durP2;ratioP2
59830;SDS011;45711;50.108;13.712;2023-12-28T00:00:46;14.95;;;8.23;;
59830;SDS011;45711;50.108;13.712;2023-12-28T00:03:11;18.50;;;8.00;;
59830;SDS011;45711;50.108;13.712;2023-12-28T00:05:37;17.50;;;8.15;;
59830;SDS011;45711;50.108;13.712;2023-12-28T00:08:03;23.30;;;10.90;;
59830;SDS011;45711;50.108;13.712;2023-12-28T00:10:31;23.05;;;10.25;;
59830;SDS011;45711;50.108;13.712;2023-12-28T00:12:58;26.10;;;10.45;;
59830;SDS011;45711;50.108;13.712;2023-12-28T00:15:24;23.95;;;10.55;;
59830;SDS011;45711;50.108;13.712;2023-12-28T00:17:50;23.17;;;9.48;;
59830;SDS011;45711;50.108;13.712;2023-12-28T00:20:16;18.30;;;8.93;;
59830;SDS011;45711;50.108;13.712;2023-12-28T00:22:41;22.48;;;10.02;;
59830;SDS011;45711;50.108;13.712;2023-12-28T00:25:07;21.17;;;9.63;;
59830;SDS011;45711;50.108;13.712;2023-12-28T00:27:33;17.17;;;9.20;;
59830;SDS011;45711;50.108;13.712;2023-12-28T00:30:01;21.30;;;9.75;;
59830;SDS011;45711;50.108;13.712;2023-12-28T00:32:27;27.50;;;9.27;;
59830;SDS011;45711;50.108;13.712;2023-12-28T00:34:53;22.13;;;9.57;;
59830;SDS011;45711;50.108;13.712;2023-12-28T00:37:19;19.98;;;9.63;;
59830;SDS011;45711;50.108;13.712;2023-12-28T00:39:44;21.52;;;9.57;;
59830;SDS011;45711;50.108;13.712;2023-12-28T00:42:13;20.10;;;10.02;;
59830;SDS011;45711;50.108;13.712;2023-12-28T00:44:39;20.77;;;9.57;;
59830;SDS011;45711;50.108;13.712;2023-12-28T00:47:05;18.25;;;8.88;;
59830;SDS011;45711;50.108;13.712;2023-12-28T00:49:31;14.30;;;8.35;;
59830;SDS011;45711;50.108;13.712;2023-12-28T00:51:57;19.55;;;9.23;;
59830;SDS011;45711;50.108;13.712;2023-12-28T00:54:23;19.15;;;8.13;;
59830;SDS011;45711;50.108;13.712;2023-12-28T00:56:48;21.88;;;8.85;;
59830;SDS011;45711;50.108;13.712;2023-12-28T00:59:14;17.88;;;8.25;;
59830;SDS011;45711;50.108;13.712;2023-12-28T01:01:40;22.35;;;8.00;;
59830;SDS011;45711;50.108;13.712;2023-12-28T01:04:07;16.42;;;7.95;;
59830;SDS011;45711;50.108;13.712;2023-12-28T01:06:32;25.73;;;8.40;;
59830;SDS011;45711;50.108;13.712;2023-12-28T01:08:58;14.52;;;7.85;;
59830;SDS011;45711;50.108;13.712;2023-12-28T01:11:25;17.35;;;8.15;;
59830;SDS011;45711;50.108;13.712;2023-12-28T01:13:51;17.48;;;7.90;;
59830;SDS011;45711;50.108;13.712;2023-12-28T01:16:19;17.83;;;7.95;;
59830;SDS011;45711;50.108;13.712;2023-12-28T01:18:47;17.70;;;9.18;;
59830;SDS011;45711;50.108;13.712;2023-12-28T01:21:17;17.38;;;8.07;;
59830;SDS011;45711;50.108;13.712;2023-12-28T01:23:43;22.08;;;8.18;;
59830;SDS011;45711;50.108;13.712;2023-12-28T01:26:11;14.75;;;7.75;;
59830;SDS011;45711;50.108;13.712;2023-12-28T01:28:38;17.85;;;7.43;;
59830;SDS011;45711;50.108;13.712;2023-12-28T01:31:03;13.63;;;7.30;;
59830;SDS011;45711;50.108;13.712;2023-12-28T01:33:29;15.43;;;7.40;;
59830;SDS011;45711;50.108;13.712;2023-12-28T01:35:58;18.70;;;7.60;;
59830;SDS011;45711;50.108;13.712;2023-12-28T01:38:27;23.05;;;8.57;;
59830;SDS011;45711;50.108;13.712;2023-12-28T01:40:53;17.15;;;7.80;;
59830;SDS011;45711;50.108;13.712;2023-12-28T01:43:18;18.30;;;8.00;;
59830;SDS011;45711;50.108;13.712;2023-12-28T01:45:44;16.98;;;7.60;;
59830;SDS011;45711;50.108;13.712;2023-12-28T01:48:10;19.20;;;8.02;;
59830;SDS011;45711;50.108;13.712;2023-12-28T01:50:38;18.35;;;7.95;;
59830;SDS011;45711;50.108;13.712;2023-12-28T01:53:04;12.32;;;7.18;;
59830;SDS011;45711;50.108;13.712;2023-12-28T01:55:33;20.83;;;8.10;;
59830;SDS011;45711;50.108;13.712;2023-12-28T01:57:59;22.13;;;8.32;;
59830;SDS011;45711;50.108;13.712;2023-12-28T02:00:25;18.77;;;8.85;;
59830;SDS011;45711;50.108;13.712;2023-12-28T02:02:51;19.08;;;8.10;;
59830;SDS011;45711;50.108;13.712;2023-12-28T02:05:17;19.75;;;8.30;;
59830;SDS011;45711;50.108;13.712;2023-12-28T02:07:43;18.90;;;8.38;;
59830;SDS011;45711;50.108;13.712;2023-12-28T02:10:09;16.27;;;7.63;;
59830;SDS011;45711;50.108;13.712;2023-12-28T02:12:40;19.02;;;8.57;;
59830;SDS011;45711;50.108;13.712;2023-12-28T02:15:06;17.27;;;8.18;;
59830;SDS011;45711;50.108;13.712;2023-12-28T02:17:33;15.60;;;6.97;;
59830;SDS011;45711;50.108;13.712;2023-12-28T02:20:03;16.33;;;7.25;;
59830;SDS011;45711;50.108;13.712;2023-12-28T02:22:31;15.10;;;7.63;;
59830;SDS011;45711;50.108;13.712;2023-12-28T02:25:06;16.05;;;7.75;;
59830;SDS011;45711;50.108;13.712;2023-12-28T02:27:33;13.30;;;6.88;;
59830;SDS011;45711;50.108;13.712;2023-12-28T02:30:00;12.52;;;5.97;;
59830;SDS011;45711;50.108;13.712;2023-12-28T02:32:28;18.10;;;6.80;;
59830;SDS011;45711;50.108;13.712;2023-12-28T02:35:03;12.35;;;6.07;;
59830;SDS011;45711;50.108;13.712;2023-12-28T02:37:35;13.65;;;5.93;;
59830;SDS011;45711;50.108;13.712;2023-12-28T02:40:03;13.07;;;5.90;;
59830;SDS011;45711;50.108;13.712;2023-12-28T02:42:31;15.32;;;5.85;;
59830;SDS011;45711;50.108;13.712;2023-12-28T02:44:57;14.77;;;6.57;;
59830;SDS011;45711;50.108;13.712;2023-12-28T02:47:25;14.88;;;6.03;;
59830;SDS011;45711;50.108;13.712;2023-12-28T02:49:52;10.18;;;5.40;;
59830;SDS011;45711;50.108;13.712;2023-12-28T02:52:18;9.68;;;5.10;;
59830;SDS011;45711;50.108;13.712;2023-12-28T02:54:44;13.30;;;5.25;;
59830;SDS011;45711;50.108;13.712;2023-12-28T02:57:09;11.75;;;5.63;;
59830;SDS011;45711;50.108;13.712;2023-12-28T02:59:44;15.73;;;5.38;;
59830;SDS011;45711;50.108;13.712;2023-12-28T03:02:14;10.10;;;5.22;;
59830;SDS011;45711;50.108;13.712;2023-12-28T03:04:40;13.10;;;5.57;;
59830;SDS011;45711;50.108;13.712;2023-12-28T03:07:07;10.70;;;5.43;;
59830;SDS011;45711;50.108;13.712;2023-12-28T03:09:33;11.65;;;4.95;;
59830;SDS011;45711;50.108;13.712;2023-12-28T03:12:02;10.00;;;5.00;;
59830;SDS011;45711;50.108;13.712;2023-12-28T03:14:28;11.73;;;5.35;;
59830;SDS011;45711;50.108;13.712;2023-12-28T03:16:55;9.20;;;4.05;;
59830;SDS011;45711;50.108;13.712;2023-12-28T03:19:20;10.88;;;4.20;;
59830;SDS011;45711;50.108;13.712;2023-12-28T03:21:46;12.43;;;4.78;;
59830;SDS011;45711;50.108;13.712;2023-12-28T03:24:12;7.40;;;3.75;;
59830;SDS011;45711;50.108;13.712;2023-12-28T03:26:38;10.25;;;4.53;;
59830;SDS011;45711;50.108;13.712;2023-12-28T03:29:04;7.93;;;4.18;;
59830;SDS011;45711;50.108;13.712;2023-12-28T03:31:30;6.32;;;3.28;;
59830;SDS011;45711;50.108;13.712;2023-12-28T03:33:57;11.07;;;3.20;;
59830;SDS011;45711;50.108;13.712;2023-12-28T03:36:24;7.03;;;3.72;;
59830;SDS011;45711;50.108;13.712;2023-12-28T03:38:49;5.20;;;3.22;;
59830;SDS011;45711;50.108;13.712;2023-12-28T03:41:18;5.65;;;2.88;;
59830;SDS011;45711;50.108;13.712;2023-12-28T03:43:48;7.28;;;3.30;;
59830;SDS011;45711;50.108;13.712;2023-12-28T03:46:18;7.07;;;3.13;;
59830;SDS011;45711;50.108;13.712;2023-12-28T03:48:44;8.65;;;3.00;;
59830;SDS011;45711;50.108;13.712;2023-12-28T03:51:14;7.90;;;2.85;;
59830;SDS011;45711;50.108;13.712;2023-12-28T03:53:40;6.57;;;3.25;;
59830;SDS011;45711;50.108;13.712;2023-12-28T03:56:06;7.93;;;3.13;;
59830;SDS011;45711;50.108;13.712;2023-12-28T03:58:34;3.95;;;2.35;;
59830;SDS011;45711;50.108;13.712;2023-12-28T04:01:00;5.50;;;3.20;;
59830;SDS011;45711;50.108;13.712;2023-12-28T04:03:25;6.95;;;3.05;;
59830;SDS011;45711;50.108;13.712;2023-12-28T04:05:51;6.97;;;2.90;;
59830;SDS011;45711;50.108;13.712;2023-12-28T04:08:24;5.35;;;2.65;;
59830;SDS011;45711;50.108;13.712;2023-12-28T04:10:52;5.38;;;2.58;;
59830;SDS011;45711;50.108;13.712;2023-12-28T04:13:19;5.00;;;2.88;;
59830;SDS011;45711;50.108;13.712;2023-12-28T04:15:45;8.88;;;2.67;;
59830;SDS011;45711;50.108;13.712;2023-12-28T04:18:11;5.63;;;2.53;;
59830;SDS011;45711;50.108;13.712;2023-12-28T04:20:36;5.40;;;2.90;;
59830;SDS011;45711;50.108;13.712;2023-12-28T04:23:02;5.18;;;2.58;;
59830;SDS011;45711;50.108;13.712;2023-12-28T04:25:32;5.13;;;2.47;;
59830;SDS011;45711;50.108;13.712;2023-12-28T04:27:58;4.20;;;2.42;;
59830;SDS011;45711;50.108;13.712;2023-12-28T04:30:23;4.35;;;2.40;;
59830;SDS011;45711;50.108;13.712;2023-12-28T04:32:49;5.38;;;2.80;;
59830;SDS011;45711;50.108;13.712;2023-12-28T04:35:15;5.10;;;2.45;;
59830;SDS011;45711;50.108;13.712;2023-12-28T04:37:41;5.75;;;2.45;;
59830;SDS011;45711;50.108;13.712;2023-12-28T04:40:07;3.65;;;2.50;;
59830;SDS011;45711;50.108;13.712;2023-12-28T04:42:35;3.47;;;2.45;;
59830;SDS011;45711;50.108;13.712;2023-12-28T04:45:01;5.35;;;2.88;;
59830;SDS011;45711;50.108;13.712;2023-12-28T04:47:27;7.18;;;2.88;;
59830;SDS011;45711;50.108;13.712;2023-12-28T04:49:53;5.22;;;3.08;;
59830;SDS011;45711;50.108;13.712;2023-12-28T04:52:19;5.90;;;2.88;;
59830;SDS011;45711;50.108;13.712;2023-12-28T04:54:45;7.75;;;3.30;;
59830;SDS011;45711;50.108;13.712;2023-12-28T04:57:10;6.78;;;3.08;;
59830;SDS011;45711;50.108;13.712;2023-12-28T04:59:39;5.30;;;3.20;;
59830;SDS011;45711;50.108;13.712;2023-12-28T05:02:05;6.70;;;2.97;;
59830;SDS011;45711;50.108;13.712;2023-12-28T05:04:33;6.07;;;3.00;;
59830;SDS011;45711;50.108;13.712;2023-12-28T05:07:03;6.55;;;3.33;;
59830;SDS011;45711;50.108;13.712;2023-12-28T05:09:29;5.60;;;2.78;;
59830;SDS011;45711;50.108;13.712;2023-12-28T05:11:56;3.97;;;2.45;;
59830;SDS011;45711;50.108;13.712;2023-12-28T05:14:22;10.00;;;2.97;;
59830;SDS011;45711;50.108;13.712;2023-12-28T05:16:49;5.60;;;2.63;;
59830;SDS011;45711;50.108;13.712;2023-12-28T05:19:15;7.72;;;2.53;;
59830;SDS011;45711;50.108;13.712;2023-12-28T05:21:43;6.22;;;2.65;;
59830;SDS011;45711;50.108;13.712;2023-12-28T05:24:09;4.00;;;2.28;;
59830;SDS011;45711;50.108;13.712;2023-12-28T05:26:35;4.32;;;2.20;;
59830;SDS011;45711;50.108;13.712;2023-12-28T05:29:00;4.00;;;2.05;;
59830;SDS011;45711;50.108;13.712;2023-12-28T05:31:26;6.53;;;2.95;;
59830;SDS011;45711;50.108;13.712;2023-12-28T05:33:53;7.97;;;2.50;;
59830;SDS011;45711;50.108;13.712;2023-12-28T05:36:19;5.50;;;2.75;;
59830;SDS011;45711;50.108;13.712;2023-12-28T05:38:45;4.75;;;2.85;;
59830;SDS011;45711;50.108;13.712;2023-12-28T05:41:10;5.07;;;2.30;;
59830;SDS011;45711;50.108;13.712;2023-12-28T05:43:39;6.57;;;2.83;;
59830;SDS011;45711;50.108;13.712;2023-12-28T05:46:05;4.53;;;2.58;;
59830;SDS011;45711;50.108;13.712;2023-12-28T05:48:30;4.93;;;2.95;;
59830;SDS011;45711;50.108;13.712;2023-12-28T05:50:58;5.35;;;2.80;;
59830;SDS011;45711;50.108;13.712;2023-12-28T05:53:24;4.05;;;2.28;;
59830;SDS011;45711;50.108;13.712;2023-12-28T05:55:51;4.40;;;2.53;;
59830;SDS011;45711;50.108;13.712;2023-12-28T05:58:17;4.97;;;2.90;;
59830;SDS011;45711;50.108;13.712;2023-12-28T06:00:43;6.10;;;2.22;;
59830;SDS011;45711;50.108;13.712;2023-12-28T06:03:16;4.30;;;2.38;;
59830;SDS011;45711;50.108;13.712;2023-12-28T06:05:44;4.35;;;2.42;;
59830;SDS011;45711;50.108;13.712;2023-12-28T06:08:11;4.57;;;2.50;;
59830;SDS011;45711;50.108;13.712;2023-12-28T06:10:38;10.07;;;2.92;;
59830;SDS011;45711;50.108;13.712;2023-12-28T06:13:06;4.43;;;2.50;;
59830;SDS011;45711;50.108;13.712;2023-12-28T06:15:33;4.78;;;2.58;;
59830;SDS011;45711;50.108;13.712;2023-12-28T06:17:59;7.18;;;2.58;;
59830;SDS011;45711;50.108;13.712;2023-12-28T06:20:26;6.32;;;2.70;;
59830;SDS011;45711;50.108;13.712;2023-12-28T06:22:59;4.35;;;2.55;;
59830;SDS011;45711;50.108;13.712;2023-12-28T06:25:33;4.80;;;2.00;;
59830;SDS011;45711;50.108;13.712;2023-12-28T06:28:10;4.70;;;2.30;;
59830;SDS011;45711;50.108;13.712;2023-12-28T06:30:49;6.68;;;2.22;;
59830;SDS011;45711;50.108;13.712;2023-12-28T06:33:29;5.30;;;2.20;;
59830;SDS011;45711;50.108;13.712;2023-12-28T06:36:18;4.03;;;2.40;;
59830;SDS011;45711;50.108;13.712;2023-12-28T06:39:09;8.25;;;2.60;;
59830;SDS011;45711;50.108;13.712;2023-12-28T06:45:07;4.18;;;2.28;;
59830;SDS011;45711;50.108;13.712;2023-12-28T06:47:52;4.47;;;2.20;;
59830;SDS011;45711;50.108;13.712;2023-12-28T06:53:52;5.40;;;2.40;;
59830;SDS011;45711;50.108;13.712;2023-12-28T07:37:33;7.85;;;2.40;;
59830;SDS011;45711;50.108;13.712;2023-12-28T07:40:32;5.20;;;2.38;;
59830;SDS011;45711;50.108;13.712;2023-12-28T07:43:01;6.25;;;2.22;;
59830;SDS011;45711;50.108;13.712;2023-12-28T07:45:31;3.25;;;1.98;;
59830;SDS011;45711;50.108;13.712;2023-12-28T07:48:12;5.88;;;2.47;;
59830;SDS011;45711;50.108;13.712;2023-12-28T07:50:43;4.57;;;2.13;;
59830;SDS011;45711;50.108;13.712;2023-12-28T07:53:18;4.13;;;2.85;;
59830;SDS011;45711;50.108;13.712;2023-12-28T07:55:44;4.80;;;2.28;;
59830;SDS011;45711;50.108;13.712;2023-12-28T07:58:10;5.72;;;2.60;;
59830;SDS011;45711;50.108;13.712;2023-12-28T08:00:55;4.35;;;2.47;;
59830;SDS011;45711;50.108;13.712;2023-12-28T08:03:26;8.35;;;2.67;;
59830;SDS011;45711;50.108;13.712;2023-12-28T08:05:55;3.55;;;2.25;;
59830;SDS011;45711;50.108;13.712;2023-12-28T08:08:20;5.00;;;2.35;;
59830;SDS011;45711;50.108;13.712;2023-12-28T08:11:02;5.53;;;2.53;;
59830;SDS011;45711;50.108;13.712;2023-12-28T08:13:35;4.95;;;2.03;;
59830;SDS011;45711;50.108;13.712;2023-12-28T08:16:08;6.30;;;2.67;;
59830;SDS011;45711;50.108;13.712;2023-12-28T08:18:41;4.25;;;2.03;;
59830;SDS011;45711;50.108;13.712;2023-12-28T08:21:09;5.72;;;2.53;;
59830;SDS011;45711;50.108;13.712;2023-12-28T08:23:35;3.55;;;2.05;;
59830;SDS011;45711;50.108;13.712;2023-12-28T08:26:02;6.68;;;2.70;;
59830;SDS011;45711;50.108;13.712;2023-12-28T08:28:35;7.35;;;2.33;;
59830;SDS011;45711;50.108;13.712;2023-12-28T08:31:18;5.67;;;3.00;;
59830;SDS011;45711;50.108;13.712;2023-12-28T08:33:50;7.70;;;3.08;;
59830;SDS011;45711;50.108;13.712;2023-12-28T08:36:18;4.30;;;2.20;;
59830;SDS011;45711;50.108;13.712;2023-12-28T08:38:47;6.97;;;3.00;;
59830;SDS011;45711;50.108;13.712;2023-12-28T08:41:20;4.82;;;2.38;;
59830;SDS011;45711;50.108;13.712;2023-12-28T08:43:59;5.68;;;2.55;;
59830;SDS011;45711;50.108;13.712;2023-12-28T08:46:37;7.00;;;3.40;;
59830;SDS011;45711;50.108;13.712;2023-12-28T08:49:11;4.53;;;2.80;;
59830;SDS011;45711;50.108;13.712;2023-12-28T08:51:52;4.45;;;2.35;;
59830;SDS011;45711;50.108;13.712;2023-12-28T08:54:19;4.57;;;2.50;;
59830;SDS011;45711;50.108;13.712;2023-12-28T08:56:49;6.03;;;2.38;;
59830;SDS011;45711;50.108;13.712;2023-12-28T08:59:39;4.78;;;2.40;;
59830;SDS011;45711;50.108;13.712;2023-12-28T09:02:21;5.93;;;2.90;;
59830;SDS011;45711;50.108;13.712;2023-12-28T09:04:52;8.05;;;2.92;;
59830;SDS011;45711;50.108;13.712;2023-12-28T09:07:21;5.30;;;2.70;;
59830;SDS011;45711;50.108;13.712;2023-12-28T09:10:04;4.70;;;1.98;;
59830;SDS011;45711;50.108;13.712;2023-12-28T09:12:45;7.47;;;2.78;;
59830;SDS011;45711;50.108;13.712;2023-12-28T09:15:12;6.78;;;2.95;;
59830;SDS011;45711;50.108;13.712;2023-12-28T09:17:53;6.47;;;2.67;;
59830;SDS011;45711;50.108;13.712;2023-12-28T09:20:34;4.90;;;3.05;;
59830;SDS011;45711;50.108;13.712;2023-12-28T09:23:13;7.72;;;2.60;;
59830;SDS011;45711;50.108;13.712;2023-12-28T09:25:40;4.63;;;2.70;;
59830;SDS011;45711;50.108;13.712;2023-12-28T09:28:33;5.00;;;2.72;;
59830;SDS011;45711;50.108;13.712;2023-12-28T09:32:10;3.92;;;2.50;;
59830;SDS011;45711;50.108;13.712;2023-12-28T09:44:13;7.82;;;2.58;;
59830;SDS011;45711;50.108;13.712;2023-12-28T09:47:07;5.72;;;2.88;;
59830;SDS011;45711;50.108;13.712;2023-12-28T09:56:40;7.38;;;2.65;;
59830;SDS011;45711;50.108;13.712;2023-12-28T10:03:13;6.70;;;2.90;;
59830;SDS011;45711;50.108;13.712;2023-12-28T10:05:54;4.72;;;2.70;;
59830;SDS011;45711;50.108;13.712;2023-12-28T10:08:49;5.00;;;2.72;;
59830;SDS011;45711;50.108;13.712;2023-12-28T10:14:16;11.85;;;3.25;;
59830;SDS011;45711;50.108;13.712;2023-12-28T10:16:42;6.60;;;3.15;;
59830;SDS011;45711;50.108;13.712;2023-12-28T10:19:16;7.97;;;3.42;;
59830;SDS011;45711;50.108;13.712;2023-12-28T10:21:52;9.35;;;3.83;;
59830;SDS011;45711;50.108;13.712;2023-12-28T10:24:29;4.85;;;2.78;;
59830;SDS011;45711;50.108;13.712;2023-12-28T10:27:20;4.43;;;2.97;;
59830;SDS011;45711;50.108;13.712;2023-12-28T10:29:46;6.93;;;3.45;;
59830;SDS011;45711;50.108;13.712;2023-12-28T10:32:28;13.98;;;3.78;;
59830;SDS011;45711;50.108;13.712;2023-12-28T10:35:00;4.80;;;2.70;;
59830;SDS011;45711;50.108;13.712;2023-12-28T10:37:29;6.13;;;3.05;;
59830;SDS011;45711;50.108;13.712;2023-12-28T10:40:17;6.95;;;3.20;;
59830;SDS011;45711;50.108;13.712;2023-12-28T10:42:57;7.97;;;3.47;;
59830;SDS011;45711;50.108;13.712;2023-12-28T10:45:55;6.88;;;2.90;;
59830;SDS011;45711;50.108;13.712;2023-12-28T10:48:47;5.35;;;3.17;;
59830;SDS011;45711;50.108;13.712;2023-12-28T10:54:27;6.97;;;2.75;;
59830;SDS011;45711;50.108;13.712;2023-12-28T11:00:41;5.30;;;3.05;;
59830;SDS011;45711;50.108;13.712;2023-12-28T11:10:31;4.75;;;2.55;;
59830;SDS011;45711;50.108;13.712;2023-12-28T11:13:55;6.90;;;2.80;;
59830;SDS011;45711;50.108;13.712;2023-12-28T11:16:24;5.70;;;3.05;;
59830;SDS011;45711;50.108;13.712;2023-12-28T11:18:56;4.28;;;2.67;;
59830;SDS011;45711;50.108;13.712;2023-12-28T11:21:34;5.07;;;2.67;;
59830;SDS011;45711;50.108;13.712;2023-12-28T11:24:01;5.72;;;2.75;;
59830;SDS011;45711;50.108;13.712;2023-12-28T11:26:42;5.70;;;2.75;;
59830;SDS011;45711;50.108;13.712;2023-12-28T11:29:42;8.93;;;2.70;;
59830;SDS011;45711;50.108;13.712;2023-12-28T11:32:16;4.03;;;2.25;;
59830;SDS011;45711;50.108;13.712;2023-12-28T11:34:51;4.88;;;2.67;;
59830;SDS011;45711;50.108;13.712;2023-12-28T11:38:04;6.00;;;2.85;;
59830;SDS011;45711;50.108;13.712;2023-12-28T11:40:45;4.80;;;2.55;;
59830;SDS011;45711;50.108;13.712;2023-12-28T11:43:17;5.28;;;2.75;;
59830;SDS011;45711;50.108;13.712;2023-12-28T11:48:45;6.32;;;2.60;;
59830;SDS011;45711;50.108;13.712;2023-12-28T11:51:18;4.63;;;2.85;;
59830;SDS011;45711;50.108;13.712;2023-12-28T11:53:52;5.15;;;2.60;;
59830;SDS011;45711;50.108;13.712;2023-12-28T11:56:24;6.47;;;2.72;;
59830;SDS011;45711;50.108;13.712;2023-12-28T11:58:59;5.35;;;2.80;;
59830;SDS011;45711;50.108;13.712;2023-12-28T12:02:27;4.95;;;2.85;;
59830;SDS011;45711;50.108;13.712;2023-12-28T12:04:39;6.03;;;2.67;;
59830;SDS011;45711;50.108;13.712;2023-12-28T12:07:10;5.53;;;2.60;;
59830;SDS011;45711;50.108;13.712;2023-12-28T12:09:54;5.78;;;2.50;;
59830;SDS011;45711;50.108;13.712;2023-12-28T12:12:20;4.95;;;2.47;;
59830;SDS011;45711;50.108;13.712;2023-12-28T12:15:04;4.35;;;2.55;;
59830;SDS011;45711;50.108;13.712;2023-12-28T12:17:54;6.53;;;2.67;;
59830;SDS011;45711;50.108;13.712;2023-12-28T12:20:31;3.55;;;2.28;;
59830;SDS011;45711;50.108;13.712;2023-12-28T12:23:06;5.40;;;2.45;;
59830;SDS011;45711;50.108;13.712;2023-12-28T12:25:35;7.45;;;2.80;;
59830;SDS011;45711;50.108;13.712;2023-12-28T12:28:10;6.20;;;2.47;;
59830;SDS011;45711;50.108;13.712;2023-12-28T12:33:39;4.63;;;2.10;;
59830;SDS011;45711;50.108;13.712;2023-12-28T12:36:08;6.05;;;3.13;;
59830;SDS011;45711;50.108;13.712;2023-12-28T12:38:33;7.57;;;2.80;;
59830;SDS011;45711;50.108;13.712;2023-12-28T12:41:00;4.68;;;2.63;;
59830;SDS011;45711;50.108;13.712;2023-12-28T12:43:26;5.25;;;2.10;;
59830;SDS011;45711;50.108;13.712;2023-12-28T12:45:52;4.32;;;2.28;;
59830;SDS011;45711;50.108;13.712;2023-12-28T12:48:19;4.72;;;2.60;;
59830;SDS011;45711;50.108;13.712;2023-12-28T12:50:45;3.20;;;2.17;;
59830;SDS011;45711;50.108;13.712;2023-12-28T12:53:11;5.60;;;2.70;;
59830;SDS011;45711;50.108;13.712;2023-12-28T12:55:39;4.43;;;2.38;;
59830;SDS011;45711;50.108;13.712;2023-12-28T12:58:07;4.25;;;2.35;;
59830;SDS011;45711;50.108;13.712;2023-12-28T13:00:33;4.32;;;2.63;;
59830;SDS011;45711;50.108;13.712;2023-12-28T13:02:59;4.22;;;2.30;;
59830;SDS011;45711;50.108;13.712;2023-12-28T13:05:26;4.85;;;2.42;;
59830;SDS011;45711;50.108;13.712;2023-12-28T13:07:53;7.82;;;2.58;;
59830;SDS011;45711;50.108;13.712;2023-12-28T13:10:19;5.60;;;2.60;;
59830;SDS011;45711;50.108;13.712;2023-12-28T13:12:45;4.57;;;2.58;;
59830;SDS011;45711;50.108;13.712;2023-12-28T13:15:11;8.48;;;2.53;;
59830;SDS011;45711;50.108;13.712;2023-12-28T13:17:37;5.22;;;2.53;;
59830;SDS011;45711;50.108;13.712;2023-12-28T13:20:03;4.28;;;2.17;;
59830;SDS011;45711;50.108;13.712;2023-12-28T13:22:32;5.80;;;2.63;;
59830;SDS011;45711;50.108;13.712;2023-12-28T13:25:02;5.88;;;2.25;;
59830;SDS011;45711;50.108;13.712;2023-12-28T13:27:29;6.78;;;2.60;;
59830;SDS011;45711;50.108;13.712;2023-12-28T13:29:56;3.67;;;1.90;;
59830;SDS011;45711;50.108;13.712;2023-12-28T13:32:22;6.43;;;2.05;;
59830;SDS011;45711;50.108;13.712;2023-12-28T13:34:48;3.13;;;2.15;;
59830;SDS011;45711;50.108;13.712;2023-12-28T13:37:15;3.30;;;1.90;;
59830;SDS011;45711;50.108;13.712;2023-12-28T13:39:43;3.55;;;2.03;;
59830;SDS011;45711;50.108;13.712;2023-12-28T13:42:08;5.55;;;2.17;;
59830;SDS011;45711;50.108;13.712;2023-12-28T13:44:36;9.07;;;2.22;;
59830;SDS011;45711;50.108;13.712;2023-12-28T13:47:01;4.63;;;2.25;;
59830;SDS011;45711;50.108;13.712;2023-12-28T13:49:28;5.90;;;2.42;;
59830;SDS011;45711;50.108;13.712;2023-12-28T13:51:54;3.38;;;1.80;;
59830;SDS011;45711;50.108;13.712;2023-12-28T13:54:20;3.72;;;2.22;;
59830;SDS011;45711;50.108;13.712;2023-12-28T13:56:47;3.78;;;2.10;;
59830;SDS011;45711;50.108;13.712;2023-12-28T13:59:13;5.72;;;2.20;;
59830;SDS011;45711;50.108;13.712;2023-12-28T14:01:39;3.05;;;2.05;;
59830;SDS011;45711;50.108;13.712;2023-12-28T14:04:08;3.00;;;1.92;;
59830;SDS011;45711;50.108;13.712;2023-12-28T14:06:34;5.20;;;2.05;;
59830;SDS011;45711;50.108;13.712;2023-12-28T14:08:59;5.63;;;2.63;;
59830;SDS011;45711;50.108;13.712;2023-12-28T14:11:25;5.22;;;2.25;;
59830;SDS011;45711;50.108;13.712;2023-12-28T14:16:33;6.03;;;1.92;;
59830;SDS011;45711;50.108;13.712;2023-12-28T14:18:58;4.53;;;2.30;;
59830;SDS011;45711;50.108;13.712;2023-12-28T14:21:27;3.70;;;2.17;;
59830;SDS011;45711;50.108;13.712;2023-12-28T14:23:55;6.50;;;2.45;;
59830;SDS011;45711;50.108;13.712;2023-12-28T14:26:29;3.38;;;2.20;;
59830;SDS011;45711;50.108;13.712;2023-12-28T14:28:56;5.70;;;2.30;;
59830;SDS011;45711;50.108;13.712;2023-12-28T14:31:35;4.45;;;2.25;;
59830;SDS011;45711;50.108;13.712;2023-12-28T14:34:11;4.45;;;2.30;;
59830;SDS011;45711;50.108;13.712;2023-12-28T14:36:38;3.53;;;2.40;;
59830;SDS011;45711;50.108;13.712;2023-12-28T14:39:18;4.50;;;2.40;;
59830;SDS011;45711;50.108;13.712;2023-12-28T14:41:46;4.32;;;2.20;;
59830;SDS011;45711;50.108;13.712;2023-12-28T14:44:12;6.18;;;2.38;;
59830;SDS011;45711;50.108;13.712;2023-12-28T14:46:39;4.90;;;2.65;;
59830;SDS011;45711;50.108;13.712;2023-12-28T14:49:05;5.30;;;2.63;;
59830;SDS011;45711;50.108;13.712;2023-12-28T14:51:31;3.83;;;2.20;;
59830;SDS011;45711;50.108;13.712;2023-12-28T14:53:56;5.20;;;2.65;;
59830;SDS011;45711;50.108;13.712;2023-12-28T14:56:22;4.72;;;2.13;;
59830;SDS011;45711;50.108;13.712;2023-12-28T14:58:48;5.90;;;2.50;;
59830;SDS011;45711;50.108;13.712;2023-12-28T15:01:20;8.07;;;2.33;;
59830;SDS011;45711;50.108;13.712;2023-12-28T15:03:50;4.07;;;2.40;;
59830;SDS011;45711;50.108;13.712;2023-12-28T15:06:15;5.57;;;2.47;;
59830;SDS011;45711;50.108;13.712;2023-12-28T15:08:41;4.05;;;2.25;;
59830;SDS011;45711;50.108;13.712;2023-12-28T15:11:10;5.07;;;2.53;;
59830;SDS011;45711;50.108;13.712;2023-12-28T15:13:39;6.68;;;2.80;;
59830;SDS011;45711;50.108;13.712;2023-12-28T15:16:05;6.00;;;2.72;;
59830;SDS011;45711;50.108;13.712;2023-12-28T15:18:34;5.22;;;2.47;;
59830;SDS011;45711;50.108;13.712;2023-12-28T15:21:02;7.65;;;2.50;;
59830;SDS011;45711;50.108;13.712;2023-12-28T15:23:28;3.72;;;2.25;;
59830;SDS011;45711;50.108;13.712;2023-12-28T15:25:55;5.82;;;2.95;;
59830;SDS011;45711;50.108;13.712;2023-12-28T15:28:22;3.40;;;2.35;;
59830;SDS011;45711;50.108;13.712;2023-12-28T15:30:50;5.85;;;2.33;;
59830;SDS011;45711;50.108;13.712;2023-12-28T15:33:16;6.35;;;2.88;;
59830;SDS011;45711;50.108;13.712;2023-12-28T15:35:42;6.05;;;2.80;;
59830;SDS011;45711;50.108;13.712;2023-12-28T15:38:09;5.32;;;2.95;;
59830;SDS011;45711;50.108;13.712;2023-12-28T15:40:35;5.50;;;2.75;;
59830;SDS011;45711;50.108;13.712;2023-12-28T15:43:03;7.05;;;2.90;;
59830;SDS011;45711;50.108;13.712;2023-12-28T15:45:29;5.55;;;3.15;;
59830;SDS011;45711;50.108;13.712;2023-12-28T15:47:56;4.43;;;2.67;;
59830;SDS011;45711;50.108;13.712;2023-12-28T15:50:22;5.80;;;2.80;;
59830;SDS011;45711;50.108;13.712;2023-12-28T15:52:48;4.88;;;2.58;;
59830;SDS011;45711;50.108;13.712;2023-12-28T15:55:18;5.60;;;2.55;;
59830;SDS011;45711;50.108;13.712;2023-12-28T15:57:44;7.75;;;2.95;;
59830;SDS011;45711;50.108;13.712;2023-12-28T16:00:10;6.70;;;3.10;;
59830;SDS011;45711;50.108;13.712;2023-12-28T16:02:36;6.15;;;2.97;;
59830;SDS011;45711;50.108;13.712;2023-12-28T16:05:02;4.25;;;2.35;;
59830;SDS011;45711;50.108;13.712;2023-12-28T16:07:32;5.20;;;2.80;;
59830;SDS011;45711;50.108;13.712;2023-12-28T16:09:58;4.82;;;2.60;;
59830;SDS011;45711;50.108;13.712;2023-12-28T16:12:25;6.47;;;2.90;;
59830;SDS011;45711;50.108;13.712;2023-12-28T16:14:51;5.53;;;2.95;;
59830;SDS011;45711;50.108;13.712;2023-12-28T16:17:18;7.82;;;3.30;;
59830;SDS011;45711;50.108;13.712;2023-12-28T16:19:50;6.32;;;3.17;;
59830;SDS011;45711;50.108;13.712;2023-12-28T16:23:08;7.15;;;3.22;;